Pagrindinis puslapis
METAR-TAF:

METAR-TAF

Oro uostai :

Džordžtaunas, Dangun Žengimo sala

platuma: 07-58S, ilguma: 014-24W, Aukštis: 86 m

METAR: trūkstamas

Laikas: 12:52 (12:52 UTC)

Prognozė

Ataskaita buvo paskelbta 32 valandos ir 22 minutes, ne 04:30 UTC
Prognozė galioja nuo 16 metu 06 UTC su 16 metu 24 UTC
Vėjas 15 kt iš Pietų/Pietryčių
Matomumas 10 km arba daugiau
Su prošvaistėmis ne aukštis 1400 ft
Laikinai
nuo 16 metu 06 UTC su 16 metu 24 UTC
Mažai debesys ne aukštis 1400 ft
Tikimybė 30% :
Laikinai
nuo 16 metu 06 UTC su 16 metu 10 UTC
Matomumas: 5000 m
lietus

TAF: FHAW 160430Z 1606/1624 15015KT 9999 BKN014 TEMPO 1606/1624 FEW014 PROB30 TEMPO 1606/1610 5000 -SHRA

Orai ataskaitas ir orų prognozės (METAR, TAF).

turimą stotys yra geltonos ir raudonos taškus žemėlapyje.

Perkelti pele per norėdami pamatyti stoties vardą.

Tada spustelėkite, norėdami matyti oro stebėjimo ir prognozės.

Norėdami pakeisti žemėlapį: spustelėkite ant žalios mygtukų su juodo kryžiaus žemyn,; žalią mygtuką su brūkšneliu, jei norite nutolinti; arba žalių rodyklių gretimoms žemėlapius.


METAR-TAF: